Terminal Aerodrome Forecast
Issued by NWS Austin/San Antonio, TX

Current Version | Previous Version | Text Only | Print | Product List | Glossary On
Versions: 1 2 3 4 5 6 7 8 9 10 11 12 13 14 15
000
FTUS44 KEWX 241139
TAFAUS
TAF
KAUS 241139Z 2412/2518 18005KT P6SM SCT015
      TEMPO 2412/2414 BKN015
     FM241400 18008KT P6SM SCT050 SCT250
     FM242000 15010KT P6SM SCT060 SCT250
     FM251100 18005KT 6SM BR BKN015
     FM251400 18008KT P6SM BKN050 BKN100=

USA.gov is the U.S. government's official web portal to all federal, state and local government web resources and services.